Time;durP1;ratioP1;P1;durP2;ratioP2;P2;SDS_P1;SDS_P2;PMS_P1;PMS_P2;Temp;Humidity;BMP_temperature;BMP_pressure;BME280_temperature;BME280_humidity;BME280_pressure;Samples;Min_cycle;Max_cycle;Signal;HPM_P1;HPM_P2
2021/03/29 00:00:08;;;;;;;19.77;5.25;;;9.60;99.90;;;;;;5071552;28;20025;-73
2021/03/29 00:02:34;;;;;;;17.15;4.97;;;9.50;99.90;;;;;;5070676;28;20036;-75
2021/03/29 00:05:00;;;;;;;16.08;5.93;;;9.50;99.90;;;;;;5078239;28;20029;-74
2021/03/29 00:07:28;;;;;;;20.33;6.07;;;9.40;99.90;;;;;;5069444;28;20016;-74
2021/03/29 00:09:55;;;;;;;13.57;5.30;;;9.40;99.90;;;;;;5072697;28;20100;-76
2021/03/29 00:12:23;;;;;;;17.20;5.50;;;9.40;99.90;;;;;;5074717;28;20009;-74
2021/03/29 00:14:50;;;;;;;14.32;5.82;;;9.40;99.90;;;;;;5074798;28;20098;-75
2021/03/29 00:17:16;;;;;;;13.23;5.63;;;9.30;99.90;;;;;;5072627;28;20029;-76
2021/03/29 00:19:42;;;;;;;16.15;5.35;;;9.40;99.90;;;;;;5073182;28;20093;-74
2021/03/29 00:22:08;;;;;;;11.75;4.90;;;9.40;99.90;;;;;;5069367;28;20483;-73
2021/03/29 00:24:36;;;;;;;23.02;6.32;;;9.40;99.90;;;;;;5066415;28;20103;-74
2021/03/29 00:27:03;;;;;;;11.52;5.78;;;9.30;99.90;;;;;;5071132;28;20052;-73
2021/03/29 00:29:29;;;;;;;21.15;5.95;;;9.30;99.90;;;;;;5071013;28;20028;-73
2021/03/29 00:31:57;;;;;;;12.25;5.38;;;9.30;99.90;;;;;;5070040;28;20033;-73
2021/03/29 00:34:23;;;;;;;18.33;6.70;;;9.30;99.90;;;;;;5059172;28;20048;-72
2021/03/29 00:36:51;;;;;;;19.20;5.63;;;9.20;99.90;;;;;;5069349;28;20020;-73
2021/03/29 00:39:17;;;;;;;15.73;7.32;;;9.20;99.90;;;;;;5069425;28;20020;-74
2021/03/29 00:41:44;;;;;;;27.63;7.25;;;9.20;99.90;;;;;;5062143;28;20017;-73
2021/03/29 00:44:11;;;;;;;20.83;7.13;;;9.20;99.90;;;;;;5065817;28;20060;-74
2021/03/29 00:46:40;;;;;;;19.63;6.78;;;9.20;99.90;;;;;;5070435;28;20028;-72
2021/03/29 00:49:06;;;;;;;15.35;7.25;;;9.20;99.90;;;;;;5071121;28;20455;-74
2021/03/29 00:51:35;;;;;;;16.27;6.78;;;9.20;99.90;;;;;;5069084;28;20028;-74
2021/03/29 00:54:03;;;;;;;16.92;7.05;;;9.20;99.90;;;;;;5062227;28;20024;-74
2021/03/29 00:56:31;;;;;;;16.63;7.30;;;9.20;99.90;;;;;;5069660;28;20036;-73
2021/03/29 00:58:58;;;;;;;23.05;7.93;;;9.20;99.90;;;;;;5061774;28;20025;-76
2021/03/29 01:01:31;;;;;;;22.17;7.55;;;9.10;99.90;;;;;;5058351;28;20623;-76
2021/03/29 01:03:59;;;;;;;16.63;6.80;;;9.10;99.90;;;;;;5071499;28;20052;-74
2021/03/29 01:06:28;;;;;;;20.55;7.28;;;9.10;99.90;;;;;;5067751;28;20086;-74
2021/03/29 01:09:04;;;;;;;20.40;8.15;;;9.10;99.90;;;;;;5070866;28;20112;-74
2021/03/29 01:11:33;;;;;;;20.95;7.50;;;9.10;99.90;;;;;;5070089;28;20037;-74
2021/03/29 01:14:06;;;;;;;18.17;7.32;;;9.10;99.90;;;;;;5068561;28;20045;-74
2021/03/29 01:16:46;;;;;;;19.55;8.77;;;9.10;99.90;;;;;;5070041;28;20059;-74
2021/03/29 01:19:35;;;;;;;21.98;8.48;;;9.20;99.90;;;;;;5065818;28;20043;-74
2021/03/29 01:22:05;;;;;;;21.23;7.95;;;9.20;99.90;;;;;;5068690;28;20112;-74
2021/03/29 01:24:31;;;;;;;19.00;8.07;;;9.20;99.90;;;;;;5059295;28;20064;-73
2021/03/29 01:26:57;;;;;;;22.77;7.85;;;9.30;99.90;;;;;;5065032;28;20105;-74
2021/03/29 01:29:30;;;;;;;21.73;8.73;;;9.30;99.90;;;;;;5062913;28;20468;-74
2021/03/29 01:32:04;;;;;;;22.75;7.88;;;9.30;99.90;;;;;;5066988;28;20029;-74
2021/03/29 01:34:32;;;;;;;15.95;7.60;;;9.30;99.90;;;;;;5069945;28;20391;-73
2021/03/29 01:36:59;;;;;;;17.33;7.35;;;9.30;99.90;;;;;;5067184;28;20080;-74
2021/03/29 01:39:29;;;;;;;16.92;6.47;;;9.30;99.90;;;;;;5071294;28;20028;-73
2021/03/29 01:41:56;;;;;;;22.10;7.72;;;9.30;99.90;;;;;;5069601;28;20028;-73
2021/03/29 01:44:22;;;;;;;13.88;6.45;;;9.20;99.90;;;;;;5081195;28;20028;-74
2021/03/29 01:46:49;;;;;;;14.23;6.00;;;9.30;99.90;;;;;;5082609;28;20016;-74
2021/03/29 01:49:15;;;;;;;9.52;5.45;;;9.30;99.90;;;;;;5073873;28;20025;-75
2021/03/29 01:51:42;;;;;;;20.10;7.55;;;9.30;99.90;;;;;;5070631;28;20625;-75
2021/03/29 01:54:09;;;;;;;16.27;5.30;;;9.40;99.90;;;;;;5064904;28;20108;-75
2021/03/29 01:56:34;;;;;;;16.17;5.43;;;9.50;99.90;;;;;;5060880;28;20115;-76
2021/03/29 01:59:01;;;;;;;13.48;4.90;;;9.50;99.90;;;;;;5069429;28;20167;-73
2021/03/29 02:01:27;;;;;;;14.30;5.38;;;9.60;99.90;;;;;;5066641;28;20496;-73
2021/03/29 02:03:54;;;;;;;13.27;4.13;;;9.70;99.90;;;;;;5069438;28;20553;-75
2021/03/29 02:06:20;;;;;;;16.63;4.22;;;9.80;99.90;;;;;;5067458;28;20024;-75
2021/03/29 02:08:47;;;;;;;11.90;3.88;;;9.80;99.90;;;;;;5060104;28;20100;-73
2021/03/29 02:11:14;;;;;;;12.13;4.13;;;9.80;99.90;;;;;;5064698;28;20029;-74
2021/03/29 02:13:44;;;;;;;13.23;4.22;;;9.90;99.90;;;;;;5062132;28;20566;-75
2021/03/29 02:16:13;;;;;;;10.75;3.83;;;9.90;99.90;;;;;;5062768;28;20028;-74
2021/03/29 02:18:42;;;;;;;13.15;4.35;;;9.90;99.90;;;;;;5054428;28;20528;-74
2021/03/29 02:21:11;;;;;;;13.57;4.45;;;10.00;99.90;;;;;;5067279;28;20446;-73
2021/03/29 02:23:39;;;;;;;16.65;4.15;;;10.00;99.90;;;;;;5059134;28;20152;-75
2021/03/29 02:26:06;;;;;;;13.70;4.95;;;10.00;99.90;;;;;;5066009;28;20040;-75
2021/03/29 02:28:33;;;;;;;13.80;4.13;;;10.00;99.90;;;;;;5062823;28;20051;-74
2021/03/29 02:31:00;;;;;;;11.95;3.63;;;10.00;99.90;;;;;;5064643;28;20090;-73
2021/03/29 02:33:27;;;;;;;9.02;3.63;;;10.00;99.90;;;;;;5058127;28;20021;-74
2021/03/29 02:35:53;;;;;;;14.30;4.45;;;10.00;99.90;;;;;;5066937;28;20035;-75
2021/03/29 02:38:19;;;;;;;13.65;4.30;;;10.00;99.90;;;;;;5067188;28;20033;-73
2021/03/29 02:40:49;;;;;;;10.38;4.63;;;10.00;99.90;;;;;;5066681;28;20190;-73
2021/03/29 02:43:16;;;;;;;11.10;3.53;;;9.90;99.90;;;;;;5067380;28;20086;-74
2021/03/29 02:46:12;;;;;;;12.82;4.07;;;9.90;99.90;;;;;;5068871;28;20108;-74
2021/03/29 02:48:44;;;;;;;14.20;3.72;;;9.90;99.90;;;;;;5050358;28;20420;-73
2021/03/29 02:51:13;;;;;;;15.03;4.20;;;9.90;99.90;;;;;;5065997;28;20071;-74
2021/03/29 02:53:49;;;;;;;13.18;3.80;;;9.90;99.90;;;;;;5078844;28;20068;-73
2021/03/29 02:56:29;;;;;;;14.88;4.28;;;9.90;99.90;;;;;;5078717;28;20027;-75
2021/03/29 02:59:08;;;;;;;13.50;3.70;;;9.80;99.90;;;;;;5072615;28;20101;-74
2021/03/29 03:01:37;;;;;;;15.95;4.05;;;9.90;99.90;;;;;;5066080;28;20369;-74
2021/03/29 03:04:04;;;;;;;17.20;3.75;;;9.80;99.90;;;;;;5067686;28;20062;-74
2021/03/29 03:06:31;;;;;;;13.27;3.78;;;9.90;99.90;;;;;;5065433;28;20050;-74
2021/03/29 03:09:00;;;;;;;11.27;3.80;;;9.80;99.90;;;;;;5063612;28;20024;-74
2021/03/29 03:11:26;;;;;;;10.48;4.25;;;9.90;99.90;;;;;;5066835;28;20104;-74
2021/03/29 03:13:53;;;;;;;11.98;3.88;;;9.90;99.90;;;;;;5061411;28;20013;-74
2021/03/29 03:16:19;;;;;;;11.63;3.97;;;9.80;99.90;;;;;;5061133;28;20021;-76
2021/03/29 03:18:48;;;;;;;9.45;3.60;;;9.80;99.90;;;;;;5065844;28;20062;-73
2021/03/29 03:21:19;;;;;;;14.75;4.63;;;9.70;99.90;;;;;;5059691;28;20039;-74
2021/03/29 03:23:55;;;;;;;16.08;5.07;;;9.80;99.90;;;;;;5061932;28;20047;-74
2021/03/29 03:26:23;;;;;;;11.68;4.00;;;9.80;99.90;;;;;;5059252;28;20029;-74
2021/03/29 03:28:50;;;;;;;16.38;4.82;;;9.80;99.90;;;;;;5063723;28;20100;-74
2021/03/29 03:31:17;;;;;;;14.13;4.65;;;9.70;99.90;;;;;;5073737;28;20032;-73
2021/03/29 03:33:43;;;;;;;14.93;4.38;;;9.70;99.90;;;;;;5074200;28;20586;-74
2021/03/29 03:36:10;;;;;;;12.30;4.00;;;9.70;99.90;;;;;;5070570;28;20089;-74
2021/03/29 03:38:40;;;;;;;18.08;3.83;;;9.60;99.90;;;;;;5074706;28;20062;-74
2021/03/29 03:41:09;;;;;;;11.10;4.10;;;9.70;99.90;;;;;;5071345;28;20067;-74
2021/03/29 03:43:52;;;;;;;12.63;4.68;;;9.70;99.90;;;;;;5075698;28;20029;-75
2021/03/29 03:46:25;;;;;;;11.32;4.45;;;9.70;99.90;;;;;;5063410;28;20028;-74
2021/03/29 03:48:55;;;;;;;14.98;4.22;;;9.60;99.90;;;;;;5072761;28;20012;-72
2021/03/29 03:51:27;;;;;;;12.25;4.32;;;9.50;99.90;;;;;;5073900;28;20032;-74
2021/03/29 03:53:53;;;;;;;8.63;4.10;;;9.50;99.90;;;;;;5072663;28;20016;-73
2021/03/29 03:56:20;;;;;;;10.27;4.30;;;9.40;99.90;;;;;;5073751;28;20028;-76
2021/03/29 03:58:46;;;;;;;14.90;3.97;;;9.40;99.90;;;;;;5074058;28;20491;-73
2021/03/29 04:01:12;;;;;;;11.48;4.95;;;9.40;99.90;;;;;;5074173;28;20040;-75
2021/03/29 04:03:38;;;;;;;17.38;4.72;;;9.40;99.90;;;;;;5072677;28;20021;-71
2021/03/29 04:06:04;;;;;;;11.10;3.90;;;9.40;99.90;;;;;;5074218;28;20033;-74
2021/03/29 04:08:30;;;;;;;16.95;4.07;;;9.40;99.90;;;;;;5073475;28;20418;-71
2021/03/29 04:10:59;;;;;;;13.90;4.30;;;9.30;99.90;;;;;;5070441;28;20027;-74
2021/03/29 04:13:31;;;;;;;10.95;3.72;;;9.30;99.90;;;;;;5074542;28;20032;-75
2021/03/29 04:16:05;;;;;;;14.63;4.63;;;9.30;99.90;;;;;;5072997;28;20029;-74
2021/03/29 04:18:31;;;;;;;10.23;3.78;;;9.20;99.90;;;;;;5073094;28;20031;-75
2021/03/29 04:20:58;;;;;;;8.63;3.90;;;9.20;99.90;;;;;;5071579;28;20044;-74
2021/03/29 04:23:25;;;;;;;15.32;5.07;;;9.20;99.90;;;;;;5073795;28;20020;-75
2021/03/29 04:25:51;;;;;;;18.15;4.07;;;9.20;99.90;;;;;;5072982;28;20109;-73
2021/03/29 04:28:18;;;;;;;18.52;4.82;;;9.30;99.90;;;;;;5073687;28;20040;-76
2021/03/29 04:30:44;;;;;;;19.75;4.90;;;9.20;99.90;;;;;;5069607;28;20017;-75
2021/03/29 04:33:10;;;;;;;12.32;4.40;;;9.20;99.90;;;;;;5072520;28;20024;-73
2021/03/29 04:35:36;;;;;;;12.52;3.72;;;9.20;99.90;;;;;;5071572;28;20028;-73
2021/03/29 04:38:02;;;;;;;14.93;4.10;;;9.20;99.90;;;;;;5074952;28;20032;-72
2021/03/29 04:40:29;;;;;;;13.23;4.40;;;9.10;99.90;;;;;;5071384;28;20114;-74
2021/03/29 04:42:55;;;;;;;12.35;4.22;;;9.10;99.90;;;;;;5070341;28;20407;-73
2021/03/29 04:45:22;;;;;;;13.02;4.28;;;9.20;99.90;;;;;;5069569;28;20683;-75
2021/03/29 04:47:48;;;;;;;14.45;4.15;;;9.20;99.90;;;;;;5068042;28;20066;-74
2021/03/29 04:50:15;;;;;;;13.93;3.20;;;9.20;99.90;;;;;;5069563;28;20071;-73
2021/03/29 04:52:41;;;;;;;16.55;3.78;;;9.20;99.90;;;;;;5068511;28;20020;-72
2021/03/29 04:55:10;;;;;;;12.90;4.50;;;9.10;99.90;;;;;;5068718;28;20024;-74
2021/03/29 04:57:35;;;;;;;10.45;3.58;;;9.10;99.90;;;;;;5069014;28;20059;-75
2021/03/29 05:00:01;;;;;;;9.85;4.10;;;9.00;99.90;;;;;;5069344;28;20083;-72
2021/03/29 05:02:27;;;;;;;10.30;3.53;;;9.00;99.90;;;;;;5069786;28;20503;-73
2021/03/29 05:04:54;;;;;;;18.60;4.43;;;9.00;99.90;;;;;;5070578;28;20036;-75
2021/03/29 05:07:19;;;;;;;16.13;4.22;;;9.00;99.90;;;;;;5067953;28;20412;-73
2021/03/29 05:09:45;;;;;;;13.07;4.07;;;9.00;99.90;;;;;;5066099;28;20020;-73
2021/03/29 05:12:23;;;;;;;10.55;3.65;;;8.90;99.90;;;;;;5066517;28;20048;-72
2021/03/29 05:14:49;;;;;;;16.65;4.07;;;8.90;99.90;;;;;;5069259;28;20142;-72
2021/03/29 05:17:15;;;;;;;14.57;4.78;;;9.00;99.90;;;;;;5082638;28;20697;-73
2021/03/29 05:19:41;;;;;;;13.75;4.63;;;8.90;99.90;;;;;;5068325;28;20442;-72
2021/03/29 05:22:08;;;;;;;14.43;4.15;;;8.90;99.90;;;;;;5066739;28;20103;-74
2021/03/29 05:24:34;;;;;;;12.35;3.97;;;8.90;99.90;;;;;;5071896;28;20123;-71
2021/03/29 05:27:01;;;;;;;11.55;4.88;;;8.90;99.90;;;;;;5067131;28;20032;-72
2021/03/29 05:29:27;;;;;;;16.80;4.70;;;8.80;99.90;;;;;;5070301;28;20024;-72
2021/03/29 05:31:57;;;;;;;12.63;4.13;;;8.80;99.90;;;;;;5070455;28;20051;-74
2021/03/29 05:34:24;;;;;;;21.48;4.50;;;8.80;99.90;;;;;;5066757;28;20086;-73
2021/03/29 05:36:51;;;;;;;13.10;4.75;;;8.80;99.90;;;;;;5067252;28;20020;-72
2021/03/29 05:39:17;;;;;;;13.52;4.85;;;8.80;99.90;;;;;;5063560;28;20116;-73
2021/03/29 05:41:45;;;;;;;12.13;4.38;;;8.80;99.90;;;;;;5069786;28;20068;-72
2021/03/29 05:44:12;;;;;;;20.55;4.90;;;8.80;99.90;;;;;;5067119;28;20063;-75
2021/03/29 05:46:46;;;;;;;12.93;4.80;;;8.80;99.90;;;;;;5073988;28;20027;-73
2021/03/29 05:49:13;;;;;;;13.93;4.50;;;8.80;99.90;;;;;;5075865;28;20021;-69
2021/03/29 05:51:40;;;;;;;18.25;4.05;;;8.80;99.90;;;;;;5085736;28;20058;-76
2021/03/29 05:54:08;;;;;;;14.07;5.25;;;8.80;99.90;;;;;;5093582;28;20045;-78
2021/03/29 05:56:35;;;;;;;14.85;4.50;;;8.80;99.90;;;;;;5094129;28;20092;-72
2021/03/29 06:01:55;;;;;;;17.75;5.05;;;8.80;99.90;;;;;;5082509;28;20050;-73
2021/03/29 06:04:48;;;;;;;23.60;4.20;;;8.80;99.90;;;;;;5071189;28;20016;-73
2021/03/29 06:07:17;;;;;;;14.23;5.05;;;8.80;99.90;;;;;;5067632;28;20029;-72
2021/03/29 06:09:45;;;;;;;21.65;5.28;;;8.80;99.90;;;;;;5064386;28;20025;-73
2021/03/29 06:12:13;;;;;;;17.10;5.03;;;8.80;99.90;;;;;;5066856;28;20082;-73
2021/03/29 06:14:39;;;;;;;13.68;4.13;;;8.80;99.90;;;;;;5072785;28;20559;-72
2021/03/29 06:17:10;;;;;;;17.80;4.82;;;8.90;99.90;;;;;;5068977;28;20033;-73
2021/03/29 06:19:37;;;;;;;8.45;4.47;;;8.90;99.90;;;;;;5069182;28;20494;-72
2021/03/29 06:22:30;;;;;;;16.83;4.50;;;9.00;99.90;;;;;;5070757;28;20279;-73
2021/03/29 06:25:07;;;;;;;12.38;5.10;;;9.00;99.90;;;;;;5062582;28;20028;-73
2021/03/29 06:27:41;;;;;;;22.98;4.97;;;9.00;99.90;;;;;;5069956;28;20067;-73
2021/03/29 06:30:36;;;;;;;15.40;4.55;;;9.00;99.90;;;;;;5063150;28;20029;-74
2021/03/29 06:33:05;;;;;;;20.45;5.03;;;9.10;99.90;;;;;;5070813;28;20028;-73
2021/03/29 06:35:41;;;;;;;23.48;5.30;;;9.10;99.90;;;;;;5070769;28;20096;-76
2021/03/29 06:38:15;;;;;;;16.95;4.88;;;9.10;99.90;;;;;;5067160;28;20373;-73
2021/03/29 06:40:43;;;;;;;10.85;4.97;;;9.20;99.90;;;;;;5069660;28;20028;-73
2021/03/29 06:43:22;;;;;;;16.95;4.88;;;9.20;99.90;;;;;;5069838;28;20515;-72
2021/03/29 06:45:49;;;;;;;12.75;4.70;;;9.30;99.90;;;;;;5069631;28;20021;-74
2021/03/29 06:48:20;;;;;;;13.00;4.70;;;9.30;99.90;;;;;;5069721;28;21029;-74
2021/03/29 06:50:45;;;;;;;13.50;4.75;;;9.30;99.90;;;;;;5069775;28;20108;-73
2021/03/29 06:53:24;;;;;;;18.45;4.63;;;9.30;99.90;;;;;;5069921;28;20021;-74
2021/03/29 06:55:52;;;;;;;15.73;4.57;;;9.40;99.90;;;;;;5063341;28;20047;-73
2021/03/29 06:58:24;;;;;;;12.93;4.82;;;9.50;99.90;;;;;;5069817;28;20017;-72
2021/03/29 07:00:54;;;;;;;10.40;4.18;;;9.50;99.90;;;;;;5055492;28;20496;-74
2021/03/29 07:03:19;;;;;;;17.50;4.47;;;9.60;99.90;;;;;;5068560;28;20119;-72
2021/03/29 07:05:48;;;;;;;15.52;3.63;;;9.60;99.90;;;;;;5068463;28;20512;-74
2021/03/29 07:08:14;;;;;;;16.00;4.43;;;9.60;99.90;;;;;;5068779;28;20017;-74
2021/03/29 07:10:39;;;;;;;11.82;4.85;;;9.70;99.90;;;;;;5068021;28;20013;-74
2021/03/29 07:13:08;;;;;;;13.82;4.15;;;9.70;99.90;;;;;;5068409;28;20031;-72
2021/03/29 07:15:35;;;;;;;11.10;3.70;;;9.80;99.90;;;;;;5069817;28;20107;-75
2021/03/29 07:18:02;;;;;;;15.13;4.43;;;9.90;99.90;;;;;;5071158;28;20032;-72
2021/03/29 07:20:31;;;;;;;14.82;3.67;;;10.00;99.90;;;;;;5068275;28;20024;-73
2021/03/29 07:22:57;;;;;;;15.55;4.47;;;10.10;99.90;;;;;;5071134;28;20024;-72
2021/03/29 07:25:30;;;;;;;12.15;4.05;;;10.10;99.90;;;;;;5068991;28;20028;-74
2021/03/29 07:27:58;;;;;;;16.23;3.20;;;10.20;99.90;;;;;;5071035;28;20009;-72
2021/03/29 07:30:44;;;;;;;14.32;4.03;;;10.30;99.90;;;;;;5070848;28;20104;-73
2021/03/29 07:33:11;;;;;;;21.73;4.68;;;10.30;99.90;;;;;;5058673;28;20033;-73
2021/03/29 07:35:49;;;;;;;13.63;3.58;;;10.40;99.90;;;;;;5074377;28;20028;-73
2021/03/29 07:38:16;;;;;;;15.90;4.78;;;10.40;99.90;;;;;;5077353;28;20032;-71
2021/03/29 07:40:44;;;;;;;22.17;4.10;;;10.50;99.90;;;;;;5069102;28;20078;-73
2021/03/29 07:43:15;;;;;;;8.88;3.80;;;10.50;99.90;;;;;;5066919;28;20025;-71
2021/03/29 07:46:04;;;;;;;11.00;4.53;;;10.60;99.90;;;;;;5068542;28;20499;-72
2021/03/29 07:48:46;;;;;;;15.30;4.68;;;10.70;99.90;;;;;;5066210;28;20321;-72
2021/03/29 07:51:14;;;;;;;12.95;4.25;;;10.70;99.90;;;;;;5068336;28;20111;-73
2021/03/29 07:53:59;;;;;;;13.55;3.72;;;10.70;99.90;;;;;;5069141;28;20145;-74
2021/03/29 07:56:47;;;;;;;18.95;4.22;;;10.80;99.90;;;;;;5066536;28;20103;-73
2021/03/29 07:59:12;;;;;;;15.20;4.03;;;10.90;99.90;;;;;;5053875;28;20147;-72
2021/03/29 08:01:58;;;;;;;20.90;3.85;;;10.90;99.90;;;;;;5067651;28;20021;-73
2021/03/29 08:05:04;;;;;;;17.92;4.13;;;11.00;99.90;;;;;;5062840;28;20364;-76
2021/03/29 08:07:38;;;;;;;18.52;3.60;;;11.00;99.90;;;;;;5064993;28;20037;-72
2021/03/29 08:10:06;;;;;;;14.82;4.32;;;11.00;99.90;;;;;;5069028;28;20024;-71
2021/03/29 08:12:32;;;;;;;15.20;3.65;;;11.10;99.90;;;;;;5066949;28;20025;-73
2021/03/29 08:14:58;;;;;;;12.95;3.92;;;11.20;99.90;;;;;;5068842;28;20035;-71
2021/03/29 08:17:45;;;;;;;15.23;4.05;;;11.30;99.90;;;;;;5070710;28;20024;-73
2021/03/29 08:20:15;;;;;;;14.73;3.70;;;11.40;99.90;;;;;;5073012;28;20021;-74
2021/03/29 08:22:41;;;;;;;14.10;4.00;;;11.50;99.90;;;;;;5071364;28;20051;-72
2021/03/29 08:25:26;;;;;;;13.02;4.65;;;11.60;99.90;;;;;;5072478;28;20017;-72
2021/03/29 08:27:57;;;;;;;12.73;3.90;;;11.80;99.90;;;;;;5072738;28;20035;-72
2021/03/29 08:30:23;;;;;;;17.15;4.43;;;11.80;99.90;;;;;;5069463;28;20017;-72
2021/03/29 08:32:49;;;;;;;11.02;4.30;;;11.80;99.90;;;;;;5071418;28;20232;-72
2021/03/29 08:35:18;;;;;;;21.00;4.95;;;11.90;99.90;;;;;;5072825;28;20043;-75
2021/03/29 08:37:51;;;;;;;11.73;4.63;;;12.00;99.90;;;;;;5073966;28;20031;-72
2021/03/29 08:40:24;;;;;;;7.65;3.00;;;12.10;99.90;;;;;;5066937;28;20361;-72
2021/03/29 08:42:53;;;;;;;12.07;4.18;;;12.30;99.90;;;;;;5074203;28;20429;-72
2021/03/29 08:45:24;;;;;;;8.75;3.83;;;12.40;99.90;;;;;;5067469;28;20024;-72
2021/03/29 08:47:52;;;;;;;11.02;3.78;;;12.70;99.90;;;;;;5074917;28;20017;-72
2021/03/29 08:50:24;;;;;;;13.10;4.07;;;12.90;99.90;;;;;;5088198;28;20021;-72
2021/03/29 08:52:54;;;;;;;12.20;4.40;;;13.20;99.90;;;;;;5091306;28;20269;-73
2021/03/29 08:55:25;;;;;;;18.63;4.82;;;13.30;99.90;;;;;;5090959;28;20121;-74
2021/03/29 08:57:56;;;;;;;10.77;3.63;;;13.70;99.90;;;;;;5074237;28;20028;-72
2021/03/29 09:00:29;;;;;;;17.88;4.32;;;14.00;99.90;;;;;;5069966;28;20033;-72
2021/03/29 09:02:54;;;;;;;12.45;3.45;;;13.90;99.90;;;;;;5073677;28;20737;-71
2021/03/29 09:05:25;;;;;;;12.25;4.05;;;13.90;99.90;;;;;;5070579;28;20048;-72
2021/03/29 09:07:52;;;;;;;19.52;3.92;;;14.00;99.90;;;;;;5065967;28;20594;-71
2021/03/29 09:10:31;;;;;;;16.23;4.22;;;13.80;99.90;;;;;;5071850;28;20017;-72
2021/03/29 09:12:56;;;;;;;13.93;3.90;;;14.00;99.90;;;;;;5066063;28;20025;-70
2021/03/29 09:15:24;;;;;;;9.15;3.42;;;14.10;99.90;;;;;;5070965;28;20044;-71
2021/03/29 09:17:58;;;;;;;16.58;4.70;;;14.20;99.90;;;;;;5073790;28;20024;-73
2021/03/29 09:20:30;;;;;;;10.13;3.47;;;14.40;99.90;;;;;;5089322;28;20035;-73
2021/03/29 09:22:56;;;;;;;13.35;3.60;;;14.50;99.90;;;;;;5091170;28;20076;-74
2021/03/29 09:25:39;;;;;;;20.08;4.03;;;14.50;99.90;;;;;;5082018;28;20074;-71
2021/03/29 09:28:41;;;;;;;21.13;3.97;;;14.50;99.90;;;;;;5070960;28;20043;-72
2021/03/29 09:31:14;;;;;;;10.32;3.45;;;14.70;99.90;;;;;;5071244;28;20043;-71
2021/03/29 09:33:42;;;;;;;10.75;3.42;;;15.00;99.90;;;;;;5069859;28;20025;-71
2021/03/29 09:36:10;;;;;;;9.50;3.47;;;14.70;99.90;;;;;;5068751;28;20033;-72
2021/03/29 09:39:00;;;;;;;13.98;3.70;;;14.80;99.90;;;;;;5079981;28;20204;-74
2021/03/29 09:41:35;;;;;;;14.18;3.85;;;15.00;99.90;;;;;;5091695;28;20116;-74
2021/03/29 09:44:07;;;;;;;8.15;3.65;;;15.20;99.90;;;;;;5080572;28;20468;-72
2021/03/29 09:46:35;;;;;;;14.93;3.67;;;15.30;99.90;;;;;;5063236;28;20066;-72
2021/03/29 09:49:15;;;;;;;6.40;2.90;;;15.10;99.90;;;;;;5064794;28;20025;-72
2021/03/29 09:51:47;;;;;;;12.07;4.03;;;15.10;99.90;;;;;;5072051;28;20028;-71
2021/03/29 09:54:29;;;;;;;14.50;4.10;;;15.20;99.80;;;;;;5071546;28;20023;-72
2021/03/29 09:56:56;;;;;;;10.35;3.67;;;15.40;99.30;;;;;;5058800;28;20046;-70
2021/03/29 09:59:35;;;;;;;12.05;3.65;;;15.30;99.10;;;;;;5070085;28;20025;-72
2021/03/29 10:02:30;;;;;;;14.40;4.40;;;15.30;99.10;;;;;;5057371;28;20032;-70
2021/03/29 10:05:06;;;;;;;12.13;4.10;;;15.50;98.80;;;;;;5069677;28;20035;-71
2021/03/29 10:07:31;;;;;;;14.15;4.10;;;15.50;98.50;;;;;;5070506;28;20620;-71
2021/03/29 10:10:06;;;;;;;9.20;4.43;;;15.10;99.00;;;;;;5068575;28;20021;-72
2021/03/29 10:12:34;;;;;;;11.57;3.55;;;15.40;98.90;;;;;;5058001;28;20473;-71
2021/03/29 10:15:06;;;;;;;15.15;4.88;;;15.50;98.60;;;;;;5067040;28;20024;-73
2021/03/29 10:17:32;;;;;;;8.70;4.20;;;15.40;98.40;;;;;;5069922;28;20529;-72
2021/03/29 10:20:17;;;;;;;9.02;4.07;;;15.40;98.70;;;;;;5069877;28;20106;-73
2021/03/29 10:22:44;;;;;;;14.05;3.97;;;15.50;98.40;;;;;;5057228;28;20474;-73
2021/03/29 10:25:15;;;;;;;10.52;3.92;;;15.30;98.50;;;;;;5069610;28;20025;-71
2021/03/29 10:27:52;;;;;;;12.98;3.85;;;15.30;98.60;;;;;;5068730;28;20097;-71
2021/03/29 10:30:18;;;;;;;9.13;4.00;;;15.40;98.40;;;;;;5070256;28;20020;-72
2021/03/29 10:32:44;;;;;;;13.65;3.50;;;15.40;98.60;;;;;;5068083;28;20565;-73
2021/03/29 10:35:11;;;;;;;10.00;4.20;;;15.80;98.40;;;;;;5070761;28;20035;-74
2021/03/29 10:37:37;;;;;;;13.23;4.38;;;16.20;97.90;;;;;;5067091;28;20051;-71
2021/03/29 10:40:04;;;;;;;13.52;4.45;;;16.20;97.70;;;;;;5069752;28;20025;-72
2021/03/29 10:42:34;;;;;;;15.68;3.80;;;16.00;97.40;;;;;;5068346;28;20032;-75
2021/03/29 10:44:59;;;;;;;10.90;3.90;;;16.10;96.90;;;;;;5070232;28;20059;-72
2021/03/29 10:47:25;;;;;;;10.75;3.70;;;15.90;96.90;;;;;;5067488;28;20052;-73
2021/03/29 10:49:52;;;;;;;11.50;4.25;;;16.10;96.90;;;;;;5065973;28;20028;-71
2021/03/29 10:52:18;;;;;;;9.18;3.72;;;16.10;96.40;;;;;;5062946;28;20028;-74
2021/03/29 10:54:44;;;;;;;8.98;3.85;;;16.20;96.40;;;;;;5058314;28;20024;-72
2021/03/29 10:57:10;;;;;;;13.02;4.57;;;16.10;96.00;;;;;;5062928;28;20025;-70
2021/03/29 10:59:36;;;;;;;13.85;4.22;;;16.00;95.70;;;;;;5064922;28;20054;-73
2021/03/29 11:02:02;;;;;;;13.23;4.20;;;16.10;95.20;;;;;;5063075;28;20078;-72
2021/03/29 11:04:28;;;;;;;9.93;3.95;;;16.30;94.60;;;;;;5062811;28;20488;-72
2021/03/29 11:06:54;;;;;;;10.95;3.67;;;16.40;94.70;;;;;;5067158;28;20012;-70
2021/03/29 11:09:20;;;;;;;10.00;3.85;;;16.60;94.40;;;;;;5070492;28;20019;-72
2021/03/29 11:11:47;;;;;;;9.73;3.88;;;16.70;93.00;;;;;;5068715;28;20024;-70
2021/03/29 11:14:12;;;;;;;7.65;3.55;;;16.90;92.40;;;;;;5069408;28;20428;-70
2021/03/29 11:16:38;;;;;;;12.60;3.53;;;16.90;91.80;;;;;;5068565;28;20643;-74
2021/03/29 11:19:04;;;;;;;11.50;3.50;;;17.00;91.80;;;;;;5067915;28;20060;-73
2021/03/29 11:21:32;;;;;;;7.97;3.10;;;17.10;90.60;;;;;;5070495;28;20081;-73
2021/03/29 11:23:57;;;;;;;13.02;3.83;;;17.00;90.10;;;;;;5065749;28;20021;-70
2021/03/29 11:26:23;;;;;;;9.90;4.35;;;17.20;88.60;;;;;;5061606;28;20059;-70
2021/03/29 11:28:49;;;;;;;11.23;3.30;;;17.40;88.20;;;;;;5068570;28;20021;-72
2021/03/29 11:31:14;;;;;;;9.68;3.80;;;17.40;86.40;;;;;;5068217;28;20134;-71
2021/03/29 11:33:40;;;;;;;11.45;4.55;;;17.60;85.40;;;;;;5068294;28;20028;-74
2021/03/29 11:36:06;;;;;;;14.70;5.15;;;17.90;85.20;;;;;;5067738;28;20040;-72
2021/03/29 11:38:32;;;;;;;12.23;4.90;;;17.90;84.00;;;;;;5068501;28;20080;-73
2021/03/29 11:40:58;;;;;;;10.75;3.88;;;18.30;85.20;;;;;;5067534;28;20052;-70
2021/03/29 11:43:23;;;;;;;11.73;4.10;;;18.40;83.10;;;;;;5067691;28;20040;-70
2021/03/29 11:45:49;;;;;;;14.95;4.18;;;18.60;83.10;;;;;;5066634;28;20070;-72
2021/03/29 11:48:15;;;;;;;14.50;4.35;;;18.80;81.20;;;;;;5066810;28;20727;-71
2021/03/29 11:50:40;;;;;;;11.40;4.18;;;18.60;80.80;;;;;;5068220;28;20032;-72
2021/03/29 11:53:06;;;;;;;13.52;4.93;;;18.70;79.70;;;;;;5072947;28;20029;-72
2021/03/29 11:55:32;;;;;;;9.80;4.40;;;19.00;80.50;;;;;;5069770;28;20048;-73
2021/03/29 11:57:58;;;;;;;9.63;4.95;;;19.30;78.40;;;;;;5070061;28;20029;-70
2021/03/29 12:03:01;;;;;;;11.90;3.92;;;19.50;75.50;;;;;;5072854;28;20027;-72
2021/03/29 12:05:31;;;;;;;10.27;4.35;;;19.50;75.40;;;;;;5073972;28;20029;-72
2021/03/29 12:13:14;;;;;;;11.57;4.18;;;19.80;70.90;;;;;;5059501;28;20284;-70
2021/03/29 12:15:41;;;;;;;7.97;3.72;;;20.00;70.10;;;;;;5064789;28;20036;-70
2021/03/29 12:18:10;;;;;;;12.23;4.30;;;19.70;70.90;;;;;;5067969;28;20603;-71
2021/03/29 12:20:36;;;;;;;9.45;3.92;;;19.60;69.60;;;;;;5066534;28;20507;-72
2021/03/29 12:23:02;;;;;;;9.38;3.72;;;19.40;68.80;;;;;;5069489;28;20099;-72
2021/03/29 12:25:29;;;;;;;8.73;3.72;;;19.40;68.50;;;;;;5069097;28;20470;-72
2021/03/29 12:27:55;;;;;;;8.80;3.63;;;19.60;67.90;;;;;;5069517;28;20100;-72
2021/03/29 12:30:22;;;;;;;9.10;3.33;;;20.00;67.40;;;;;;5067438;28;20281;-71
2021/03/29 12:32:48;;;;;;;8.07;3.30;;;20.00;66.00;;;;;;5069719;28;20583;-73
2021/03/29 12:35:22;;;;;;;9.90;3.88;;;20.00;64.10;;;;;;5069547;28;20020;-72
2021/03/29 12:37:53;;;;;;;7.40;2.90;;;19.80;64.50;;;;;;5069270;28;20124;-72
2021/03/29 12:40:24;;;;;;;8.20;3.47;;;19.90;64.10;;;;;;5059145;28;20048;-71
2021/03/29 12:43:04;;;;;;;7.68;3.80;;;20.00;64.70;;;;;;5067229;28;20067;-73
2021/03/29 12:45:31;;;;;;;9.98;3.88;;;20.10;64.50;;;;;;5069837;28;20025;-73
2021/03/29 12:47:59;;;;;;;10.45;4.05;;;20.30;65.10;;;;;;5069665;28;20020;-71
2021/03/29 12:50:25;;;;;;;10.90;4.18;;;20.40;62.90;;;;;;5069555;28;20032;-74
2021/03/29 12:52:51;;;;;;;8.23;4.25;;;20.10;61.70;;;;;;5069598;28;20174;-72
2021/03/29 12:55:19;;;;;;;7.72;3.72;;;19.80;62.90;;;;;;5069203;28;20036;-73
2021/03/29 12:57:46;;;;;;;6.63;3.97;;;20.10;62.90;;;;;;5059088;28;20163;-71
2021/03/29 13:00:13;;;;;;;10.27;4.03;;;20.30;62.40;;;;;;5063886;28;20024;-73
2021/03/29 13:02:43;;;;;;;10.32;3.90;;;20.50;62.00;;;;;;5055052;28;20442;-71
2021/03/29 13:05:13;;;;;;;9.55;4.47;;;20.30;60.60;;;;;;5068895;28;20029;-71